createdAt,value
2018-09-03T00:00:44.700Z,1.90
2018-09-03T00:03:12.856Z,1.53
2018-09-03T00:05:41.081Z,2.63
2018-09-03T00:08:09.207Z,2.23
2018-09-03T00:10:37.431Z,1.50
2018-09-03T00:13:05.795Z,1.43
2018-09-03T00:15:33.972Z,1.67
2018-09-03T00:18:02.154Z,1.70
2018-09-03T00:20:30.351Z,1.40
2018-09-03T00:22:58.644Z,1.87
2018-09-03T00:25:26.891Z,2.53
2018-09-03T00:27:55.074Z,1.90
2018-09-03T00:30:23.252Z,3.70
2018-09-03T00:32:56.872Z,2.40
2018-09-03T00:35:30.545Z,1.50
2018-09-03T00:38:04.013Z,1.47
2018-09-03T00:40:37.784Z,2.43
2018-09-03T00:43:11.319Z,1.87
2018-09-03T00:45:44.827Z,2.13
2018-09-03T00:48:12.999Z,3.97
2018-09-03T00:50:41.243Z,2.20
2018-09-03T00:53:09.408Z,1.93
2018-09-03T00:55:37.705Z,2.00
2018-09-03T00:58:05.963Z,1.47
2018-09-03T01:00:34.200Z,3.10
2018-09-03T01:03:02.430Z,2.93
2018-09-03T01:05:30.616Z,2.83
2018-09-03T01:07:58.800Z,2.00
2018-09-03T01:10:27.028Z,1.77
2018-09-03T01:12:55.181Z,2.07
2018-09-03T01:15:23.778Z,2.33
2018-09-03T01:17:51.984Z,2.17
2018-09-03T01:20:20.177Z,1.60
2018-09-03T01:22:48.408Z,2.20
2018-09-03T01:25:16.596Z,1.90
2018-09-03T01:27:44.814Z,1.80
2018-09-03T01:30:12.983Z,1.90
2018-09-03T01:32:41.166Z,2.00
2018-09-03T01:35:09.326Z,1.63
2018-09-03T01:37:37.540Z,2.80
2018-09-03T01:40:05.779Z,2.33
2018-09-03T01:42:33.984Z,2.37
2018-09-03T01:45:02.204Z,1.60
2018-09-03T01:47:30.665Z,3.30
2018-09-03T01:49:58.866Z,1.80
2018-09-03T01:52:27.083Z,1.67
2018-09-03T01:54:55.253Z,2.57
2018-09-03T01:57:23.691Z,1.70
2018-09-03T01:59:52.174Z,1.67
2018-09-03T02:02:20.404Z,2.07
2018-09-03T02:04:48.660Z,1.97
2018-09-03T02:07:16.857Z,2.30
2018-09-03T02:09:45.034Z,1.97
2018-09-03T02:12:13.735Z,2.00
2018-09-03T02:14:43.415Z,2.00
2018-09-03T02:17:12.645Z,2.17
2018-09-03T02:19:40.855Z,1.63
2018-09-03T02:22:09.051Z,1.60
2018-09-03T02:24:37.408Z,2.30
2018-09-03T02:27:05.630Z,2.03
2018-09-03T02:29:34.210Z,1.90
2018-09-03T02:32:02.585Z,1.50
2018-09-03T02:34:30.777Z,2.20
2018-09-03T02:36:58.970Z,1.50
2018-09-03T02:39:27.200Z,4.17
2018-09-03T02:41:55.368Z,1.50
2018-09-03T02:44:23.572Z,1.90
2018-09-03T02:46:51.742Z,1.90
2018-09-03T02:49:19.941Z,1.83
2018-09-03T02:51:48.200Z,1.73
2018-09-03T02:54:16.393Z,2.60
2018-09-03T02:56:44.572Z,1.97
2018-09-03T02:59:12.776Z,2.03
2018-09-03T03:01:40.967Z,1.47
2018-09-03T03:04:09.167Z,2.10
2018-09-03T03:06:37.367Z,1.93
2018-09-03T03:09:07.731Z,1.90
2018-09-03T03:11:36.026Z,1.60
2018-09-03T03:14:04.216Z,3.23
2018-09-03T03:16:32.739Z,1.60
2018-09-03T03:19:00.944Z,1.83
2018-09-03T03:21:29.142Z,1.73
2018-09-03T03:23:57.337Z,1.60
2018-09-03T03:26:25.513Z,2.43
2018-09-03T03:28:53.721Z,2.37
2018-09-03T03:31:21.882Z,1.97
2018-09-03T03:33:50.089Z,2.13
2018-09-03T03:36:18.267Z,2.00
2018-09-03T03:38:46.471Z,1.90
2018-09-03T03:41:14.655Z,1.93
2018-09-03T03:43:42.926Z,1.90
2018-09-03T03:46:11.171Z,2.03
2018-09-03T03:48:39.391Z,2.50
2018-09-03T03:51:07.491Z,2.07
2018-09-03T03:53:35.715Z,2.03
2018-09-03T03:56:03.920Z,1.80
2018-09-03T03:58:32.111Z,1.47
2018-09-03T04:01:00.308Z,2.13
2018-09-03T04:03:28.475Z,2.47
2018-09-03T04:05:56.752Z,1.53
2018-09-03T04:08:24.902Z,1.87
2018-09-03T04:10:53.124Z,2.30
2018-09-03T04:13:21.308Z,1.83
2018-09-03T04:15:49.544Z,2.20
2018-09-03T04:18:17.715Z,1.53
2018-09-03T04:20:45.920Z,2.17
2018-09-03T04:23:14.257Z,1.40
2018-09-03T04:25:42.260Z,1.80
2018-09-03T04:28:10.409Z,2.33
2018-09-03T04:30:38.604Z,1.70
2018-09-03T04:33:06.773Z,1.63
2018-09-03T04:35:34.971Z,1.67
2018-09-03T04:38:03.144Z,1.90
2018-09-03T04:40:31.472Z,1.67
2018-09-03T04:42:59.695Z,2.23
2018-09-03T04:45:27.844Z,2.00
2018-09-03T04:47:56.039Z,2.67
2018-09-03T04:50:24.217Z,2.00
2018-09-03T04:52:52.421Z,2.33
2018-09-03T04:55:20.680Z,2.33
2018-09-03T04:57:48.874Z,2.00
2018-09-03T05:00:17.037Z,2.67
2018-09-03T05:02:45.407Z,1.97
2018-09-03T05:05:13.626Z,2.37
2018-09-03T05:07:41.840Z,2.03
2018-09-03T05:10:10.021Z,2.80
2018-09-03T05:12:38.203Z,2.30
2018-09-03T05:15:06.406Z,2.33
2018-09-03T05:17:34.598Z,2.23
2018-09-03T05:20:02.761Z,2.30
2018-09-03T05:22:30.960Z,2.40
2018-09-03T05:24:59.112Z,3.53
2018-09-03T05:27:27.286Z,2.60
2018-09-03T05:29:55.492Z,3.20
2018-09-03T05:32:23.663Z,2.83
2018-09-03T05:34:51.870Z,2.13
2018-09-03T05:37:20.084Z,2.13
2018-09-03T05:39:48.246Z,2.67
2018-09-03T05:42:16.421Z,2.33
2018-09-03T05:44:44.609Z,2.93
2018-09-03T05:47:12.804Z,2.87
2018-09-03T05:49:41.036Z,2.67
2018-09-03T05:52:09.260Z,3.33
2018-09-03T05:54:37.400Z,4.83
2018-09-03T05:57:05.608Z,4.00
2018-09-03T05:59:34.683Z,2.90
2018-09-03T06:02:02.926Z,2.33
2018-09-03T06:04:31.088Z,1.93
2018-09-03T06:06:59.268Z,2.37
2018-09-03T06:09:27.476Z,3.70
2018-09-03T06:11:55.680Z,2.70
2018-09-03T06:14:23.907Z,2.40
2018-09-03T06:16:52.123Z,2.83
2018-09-03T06:19:20.283Z,2.87
2018-09-03T06:21:48.484Z,2.87
2018-09-03T06:24:16.685Z,2.83
2018-09-03T06:26:44.975Z,2.93
2018-09-03T06:29:13.314Z,2.27
2018-09-03T06:31:41.545Z,2.57
2018-09-03T06:34:09.739Z,2.70
2018-09-03T06:36:37.929Z,3.13
2018-09-03T06:39:07.378Z,2.87
2018-09-03T06:41:35.543Z,3.53
2018-09-03T06:44:03.755Z,2.60
2018-09-03T06:46:32.199Z,2.33
2018-09-03T06:49:00.391Z,2.43
2018-09-03T06:51:28.638Z,2.60
2018-09-03T06:53:56.870Z,2.27
2018-09-03T06:56:25.148Z,3.00
2018-09-03T06:58:53.328Z,3.00
2018-09-03T07:01:21.508Z,3.10
2018-09-03T07:03:49.748Z,3.10
2018-09-03T07:06:17.961Z,2.60
2018-09-03T07:08:46.256Z,2.33
2018-09-03T07:11:14.454Z,3.37
2018-09-03T07:13:42.621Z,2.30
2018-09-03T07:16:10.856Z,2.97
2018-09-03T07:18:39.133Z,3.33
2018-09-03T07:21:07.320Z,3.10
2018-09-03T07:23:35.540Z,4.13
2018-09-03T07:26:03.819Z,2.80
2018-09-03T07:28:31.971Z,4.00
2018-09-03T07:31:00.172Z,2.87
2018-09-03T07:33:28.498Z,3.40
2018-09-03T07:35:56.811Z,4.13
2018-09-03T07:38:25.488Z,3.00
2018-09-03T07:40:53.684Z,3.60
2018-09-03T07:43:21.900Z,3.40
2018-09-03T07:45:50.059Z,3.30
2018-09-03T07:48:18.240Z,3.37
2018-09-03T07:50:46.498Z,3.50
2018-09-03T07:53:14.720Z,3.10
2018-09-03T07:55:42.893Z,5.07
2018-09-03T07:58:11.047Z,3.33
2018-09-03T08:00:39.257Z,3.20
2018-09-03T08:03:07.466Z,3.50
2018-09-03T08:05:35.629Z,2.87
2018-09-03T08:08:03.819Z,3.33
2018-09-03T08:10:32.012Z,3.03
2018-09-03T08:13:00.213Z,5.60
2018-09-03T08:15:28.402Z,3.67
2018-09-03T08:17:56.635Z,3.57
2018-09-03T08:20:24.815Z,4.53
2018-09-03T08:22:53.032Z,3.50
2018-09-03T08:25:21.204Z,3.97
2018-09-03T08:27:49.395Z,4.23
2018-09-03T08:30:17.582Z,3.63
2018-09-03T08:32:45.891Z,4.57
2018-09-03T08:35:14.054Z,4.87
2018-09-03T08:37:42.224Z,4.37
2018-09-03T08:40:10.416Z,5.50
2018-09-03T08:42:38.733Z,5.10
2018-09-03T08:45:07.040Z,3.70
2018-09-03T08:47:35.187Z,4.40
2018-09-03T08:50:03.356Z,4.13
2018-09-03T08:52:31.560Z,5.37
2018-09-03T08:54:59.710Z,3.83
2018-09-03T08:57:27.887Z,4.70
2018-09-03T08:59:56.037Z,4.23
2018-09-03T09:02:24.257Z,4.37
2018-09-03T09:04:52.463Z,5.13
2018-09-03T09:07:20.668Z,4.00
2018-09-03T09:09:48.920Z,5.37
2018-09-03T09:12:17.127Z,6.73
2018-09-03T09:14:45.325Z,3.83
2018-09-03T09:17:13.579Z,5.03
2018-09-03T09:19:41.812Z,3.60
2018-09-03T09:22:10.056Z,4.53
2018-09-03T09:24:38.279Z,4.40
2018-09-03T09:27:06.456Z,4.67
2018-09-03T09:29:34.755Z,4.63
2018-09-03T09:32:03.059Z,6.43
2018-09-03T09:34:31.269Z,6.07
2018-09-03T09:36:59.479Z,4.50
2018-09-03T09:39:27.740Z,7.17
2018-09-03T09:41:55.915Z,4.50
2018-09-03T09:44:24.138Z,4.73
2018-09-03T09:46:52.332Z,3.50
2018-09-03T09:49:20.581Z,5.17
2018-09-03T09:51:55.476Z,5.23
2018-09-03T09:54:23.640Z,4.83
2018-09-03T09:56:51.823Z,4.00
2018-09-03T09:59:21.346Z,4.20
2018-09-03T10:01:49.569Z,4.03
2018-09-03T10:04:17.769Z,5.20
2018-09-03T10:06:45.981Z,4.23
2018-09-03T10:09:14.176Z,5.20
2018-09-03T10:11:42.376Z,4.73
2018-09-03T10:14:10.568Z,3.50
2018-09-03T10:16:38.742Z,4.00
2018-09-03T10:19:06.932Z,4.27
2018-09-03T10:21:35.157Z,5.40
2018-09-03T10:24:03.352Z,4.00
2018-09-03T10:26:31.581Z,4.80
2018-09-03T10:28:59.780Z,4.10
2018-09-03T10:31:28.013Z,4.80
2018-09-03T10:33:56.219Z,3.73
2018-09-03T10:36:24.348Z,5.37
2018-09-03T10:38:52.916Z,5.37
2018-09-03T10:41:21.100Z,4.47
2018-09-03T10:43:49.296Z,4.43
2018-09-03T10:46:17.524Z,4.60
2018-09-03T10:48:45.744Z,4.53
2018-09-03T10:51:13.921Z,5.30
2018-09-03T10:53:42.095Z,4.90
2018-09-03T10:56:10.287Z,4.70
2018-09-03T10:58:38.564Z,3.53
2018-09-03T11:01:06.763Z,5.37
2018-09-03T11:03:34.968Z,3.80
2018-09-03T11:06:03.190Z,4.83
2018-09-03T11:08:31.342Z,5.30
2018-09-03T11:10:59.560Z,3.17
2018-09-03T11:13:27.774Z,4.70
2018-09-03T11:15:55.919Z,3.70
2018-09-03T11:18:24.356Z,3.70
2018-09-03T11:20:52.564Z,5.57
2018-09-03T11:23:20.749Z,4.67
2018-09-03T11:25:48.960Z,4.03
2018-09-03T11:28:17.191Z,4.50
2018-09-03T11:30:45.388Z,5.83
2018-09-03T11:33:13.556Z,4.70
2018-09-03T11:35:41.738Z,4.43
2018-09-03T11:38:09.968Z,4.13
2018-09-03T11:40:38.187Z,4.03
2018-09-03T11:43:06.444Z,4.67
2018-09-03T11:45:34.643Z,5.37
2018-09-03T11:48:02.943Z,4.03
2018-09-03T11:50:31.157Z,6.17
2018-09-03T11:52:59.388Z,5.10
2018-09-03T11:55:27.589Z,5.07
2018-09-03T11:57:55.774Z,4.80
2018-09-03T12:00:26.921Z,4.50
2018-09-03T12:02:55.097Z,3.77
2018-09-03T12:05:23.255Z,5.00
2018-09-03T12:07:51.428Z,4.20
2018-09-03T12:10:19.656Z,4.80
2018-09-03T12:12:47.823Z,4.77
2018-09-03T12:15:19.877Z,4.33
2018-09-03T12:17:48.139Z,5.40
2018-09-03T12:20:16.313Z,3.53
2018-09-03T12:22:44.530Z,4.07
2018-09-03T12:25:12.685Z,4.07
2018-09-03T12:27:40.906Z,5.03
2018-09-03T12:30:09.127Z,3.47
2018-09-03T12:32:37.697Z,3.60
2018-09-03T12:35:06.103Z,5.80
2018-09-03T12:37:34.267Z,5.20
2018-09-03T12:40:02.473Z,5.00
2018-09-03T12:42:30.705Z,4.07
2018-09-03T12:44:58.879Z,3.70
2018-09-03T12:47:27.088Z,4.27
2018-09-03T12:49:55.244Z,3.50
2018-09-03T12:52:23.464Z,3.80
2018-09-03T12:54:51.645Z,4.43
2018-09-03T12:57:19.803Z,3.67
2018-09-03T12:59:48.605Z,4.93
2018-09-03T13:02:16.783Z,3.70
2018-09-03T13:04:45.065Z,4.67
2018-09-03T13:07:13.320Z,4.95
2018-09-03T13:09:41.540Z,8.30
2018-09-03T13:12:09.707Z,4.37
2018-09-03T13:14:37.889Z,5.40
2018-09-03T13:17:06.082Z,5.70
2018-09-03T13:19:34.287Z,4.77
2018-09-03T13:22:02.460Z,4.47
2018-09-03T13:24:30.695Z,5.40
2018-09-03T13:26:58.851Z,6.50
2018-09-03T13:29:28.232Z,5.27
2018-09-03T13:31:56.519Z,6.00
2018-09-03T13:34:24.734Z,3.90
2018-09-03T13:36:52.948Z,5.90
2018-09-03T13:39:21.127Z,4.70
2018-09-03T13:41:49.368Z,5.53
2018-09-03T13:44:17.551Z,4.13
2018-09-03T13:46:45.783Z,4.83
2018-09-03T13:49:13.918Z,8.83
2018-09-03T13:51:42.079Z,5.30
2018-09-03T13:54:10.238Z,4.83
2018-09-03T13:56:38.481Z,4.80
2018-09-03T13:59:06.730Z,4.07
2018-09-03T14:01:34.908Z,5.13
2018-09-03T14:04:03.050Z,6.87
2018-09-03T14:06:31.274Z,5.10
2018-09-03T14:08:59.456Z,4.70
2018-09-03T14:11:27.682Z,5.87
2018-09-03T14:13:55.809Z,7.73
2018-09-03T14:16:24.083Z,5.87
2018-09-03T14:18:52.348Z,5.50
2018-09-03T14:21:20.547Z,5.03
2018-09-03T14:23:48.779Z,4.80
2018-09-03T14:26:16.947Z,5.43
2018-09-03T14:28:45.151Z,3.87
2018-09-03T14:31:13.331Z,4.87
2018-09-03T14:33:41.596Z,4.50
2018-09-03T14:36:09.876Z,4.63
2018-09-03T14:38:38.109Z,6.93
2018-09-03T14:41:06.270Z,5.00
2018-09-03T14:43:34.411Z,5.13
2018-09-03T14:46:02.664Z,4.70
2018-09-03T14:48:30.844Z,5.97
2018-09-03T14:50:59.005Z,5.07
2018-09-03T14:53:27.168Z,7.67
2018-09-03T14:55:55.423Z,5.47
2018-09-03T14:58:23.628Z,4.77
2018-09-03T15:00:51.936Z,5.47
2018-09-03T15:03:20.091Z,5.90
2018-09-03T15:05:55.049Z,4.50
2018-09-03T15:08:23.282Z,5.33
2018-09-03T15:10:51.494Z,6.27
2018-09-03T15:13:19.691Z,5.43
2018-09-03T15:15:47.887Z,5.40
2018-09-03T15:18:16.124Z,4.60
2018-09-03T15:20:44.374Z,5.57
2018-09-03T15:23:12.832Z,5.80
2018-09-03T15:25:41.015Z,7.00
2018-09-03T15:28:09.222Z,4.23
2018-09-03T15:30:37.400Z,6.00
2018-09-03T15:33:05.603Z,9.50
2018-09-03T15:35:33.838Z,6.97
2018-09-03T15:38:02.056Z,5.27
2018-09-03T15:40:30.320Z,5.50
2018-09-03T15:42:58.637Z,4.80
2018-09-03T15:45:26.740Z,7.13
2018-09-03T15:47:55.300Z,4.63
2018-09-03T15:50:23.570Z,5.97
2018-09-03T15:52:51.768Z,5.20
2018-09-03T15:55:19.916Z,4.97
2018-09-03T15:57:48.087Z,7.50
2018-09-03T16:00:16.283Z,7.43
2018-09-03T16:02:44.472Z,6.70
2018-09-03T16:05:12.649Z,5.93
2018-09-03T16:07:40.804Z,5.80
2018-09-03T16:10:08.972Z,7.43
2018-09-03T16:12:37.189Z,6.60
2018-09-03T16:15:05.588Z,6.97
2018-09-03T16:17:33.821Z,9.10
2018-09-03T16:20:02.164Z,6.63
2018-09-03T16:22:30.344Z,8.20
2018-09-03T16:24:58.532Z,6.70
2018-09-03T16:27:26.753Z,6.53
2018-09-03T16:29:54.914Z,6.37
2018-09-03T16:32:23.200Z,8.90
2018-09-03T16:34:51.399Z,7.40
2018-09-03T16:37:19.567Z,8.37
2018-09-03T16:39:47.728Z,8.70
2018-09-03T16:42:15.920Z,9.47
2018-09-03T16:44:44.140Z,9.50
2018-09-03T16:47:12.339Z,10.00
2018-09-03T16:49:40.543Z,8.30
2018-09-03T16:52:08.732Z,7.87
2018-09-03T16:54:36.905Z,9.23
2018-09-03T16:57:05.144Z,8.87
2018-09-03T16:59:33.851Z,8.80
2018-09-03T17:02:02.293Z,9.07
2018-09-03T17:04:30.436Z,9.43
2018-09-03T17:06:58.632Z,8.63
2018-09-03T17:09:26.827Z,8.33
2018-09-03T17:11:55.024Z,9.70
2018-09-03T17:14:23.177Z,8.43
2018-09-03T17:16:51.400Z,7.40
2018-09-03T17:19:19.596Z,9.60
2018-09-03T17:21:47.803Z,8.53
2018-09-03T17:24:15.957Z,6.37
2018-09-03T17:26:44.900Z,7.30
2018-09-03T17:29:13.349Z,8.10
2018-09-03T17:31:41.652Z,7.20
2018-09-03T17:34:09.824Z,6.40
2018-09-03T17:36:37.995Z,7.77
2018-09-03T17:39:07.000Z,7.57
2018-09-03T17:41:35.256Z,7.83
2018-09-03T17:44:03.415Z,6.00
2018-09-03T17:46:31.592Z,7.40
2018-09-03T17:48:59.822Z,8.67
2018-09-03T17:51:28.038Z,9.37
2018-09-03T17:53:56.261Z,9.83
2018-09-03T17:56:24.479Z,7.77
2018-09-03T17:58:52.684Z,9.13
2018-09-03T18:01:20.870Z,9.47
2018-09-03T18:03:49.118Z,9.57
2018-09-03T18:06:17.303Z,9.30
2018-09-03T18:08:45.471Z,8.37
2018-09-03T18:11:13.703Z,11.10
2018-09-03T18:13:41.848Z,9.60
2018-09-03T18:16:10.054Z,9.77
2018-09-03T18:18:38.240Z,9.33
2018-09-03T18:21:06.476Z,8.33
2018-09-03T18:23:34.924Z,9.97
2018-09-03T18:26:03.162Z,11.97
2018-09-03T18:28:31.404Z,9.40
2018-09-03T18:30:59.590Z,8.37
2018-09-03T18:33:27.837Z,11.40
2018-09-03T18:35:56.060Z,10.30
2018-09-03T18:38:24.279Z,10.63
2018-09-03T18:40:52.423Z,10.03
2018-09-03T18:43:20.647Z,9.27
2018-09-03T18:45:48.836Z,8.57
2018-09-03T18:48:17.031Z,9.57
2018-09-03T18:50:45.252Z,8.57
2018-09-03T18:53:13.433Z,8.53
2018-09-03T18:55:42.503Z,8.33
2018-09-03T18:58:10.661Z,10.83
2018-09-03T19:00:38.923Z,9.20
2018-09-03T19:03:07.085Z,8.80
2018-09-03T19:05:35.310Z,10.90
2018-09-03T19:08:03.512Z,10.77
2018-09-03T19:10:31.728Z,10.10
2018-09-03T19:12:59.866Z,8.03
2018-09-03T19:15:28.083Z,9.50
2018-09-03T19:17:56.352Z,9.90
2018-09-03T19:20:24.605Z,7.90
2018-09-03T19:22:52.813Z,8.03
2018-09-03T19:25:20.967Z,8.00
2018-09-03T19:27:49.126Z,8.93
2018-09-03T19:30:17.279Z,8.73
2018-09-03T19:32:45.488Z,7.77
2018-09-03T19:35:13.783Z,7.50
2018-09-03T19:37:41.923Z,11.00
2018-09-03T19:40:10.141Z,6.93
2018-09-03T19:42:38.374Z,7.43
2018-09-03T19:45:06.736Z,8.57
2018-09-03T19:47:34.911Z,7.33
2018-09-03T19:50:03.208Z,6.67
2018-09-03T19:52:31.440Z,7.07
2018-09-03T19:54:59.664Z,7.53
2018-09-03T19:57:27.851Z,5.80
2018-09-03T19:59:56.030Z,7.73
2018-09-03T20:02:24.245Z,6.07
2018-09-03T20:04:52.417Z,5.50
2018-09-03T20:07:20.573Z,6.77
2018-09-03T20:09:48.754Z,6.90
2018-09-03T20:12:16.932Z,7.40
2018-09-03T20:14:45.089Z,9.13
2018-09-03T20:17:13.367Z,7.13
2018-09-03T20:19:41.537Z,7.03
2018-09-03T20:22:14.665Z,7.50
2018-09-03T20:24:42.839Z,6.07
2018-09-03T20:27:11.029Z,5.73
2018-09-03T20:29:39.383Z,8.37
2018-09-03T20:32:07.601Z,6.87
2018-09-03T20:34:35.820Z,6.93
2018-09-03T20:37:03.969Z,6.70
2018-09-03T20:39:32.156Z,6.37
2018-09-03T20:42:00.346Z,6.70
2018-09-03T20:44:28.535Z,6.13
2018-09-03T20:46:56.804Z,6.10
2018-09-03T20:49:24.989Z,5.73
2018-09-03T20:51:53.149Z,9.90
2018-09-03T20:54:21.349Z,6.77
2018-09-03T20:56:49.600Z,6.77
2018-09-03T20:59:18.694Z,7.10
2018-09-03T21:01:46.905Z,7.83
2018-09-03T21:04:15.186Z,9.97
2018-09-03T21:06:43.435Z,6.63
2018-09-03T21:09:11.700Z,7.50
2018-09-03T21:11:39.899Z,7.53
2018-09-03T21:14:08.077Z,6.57
2018-09-03T21:16:36.293Z,7.07
2018-09-03T21:19:04.454Z,5.63
2018-09-03T21:21:32.643Z,6.27
2018-09-03T21:24:00.955Z,5.77
2018-09-03T21:26:29.040Z,7.20
2018-09-03T21:28:57.217Z,7.60
2018-09-03T21:31:25.389Z,8.00
2018-09-03T21:33:53.649Z,6.43
2018-09-03T21:36:21.843Z,5.93
2018-09-03T21:38:50.065Z,6.80
2018-09-03T21:41:18.244Z,6.80
2018-09-03T21:43:46.472Z,8.40
2018-09-03T21:46:14.641Z,9.80
2018-09-03T21:48:42.864Z,8.37
2018-09-03T21:51:11.066Z,6.97
2018-09-03T21:53:39.254Z,6.83
2018-09-03T21:56:07.437Z,6.83
2018-09-03T21:58:35.615Z,8.17
2018-09-03T22:01:03.803Z,6.10
2018-09-03T22:03:32.020Z,6.80
2018-09-03T22:06:00.211Z,7.40
2018-09-03T22:08:28.473Z,7.43
2018-09-03T22:10:56.602Z,7.87
2018-09-03T22:13:24.807Z,7.37
2018-09-03T22:15:52.980Z,7.47
2018-09-03T22:18:21.199Z,7.30
2018-09-03T22:20:49.544Z,7.70
2018-09-03T22:23:17.712Z,7.07
2018-09-03T22:25:45.954Z,9.63
2018-09-03T22:28:14.184Z,9.50
2018-09-03T22:30:42.356Z,5.77
2018-09-03T22:33:10.540Z,6.20
2018-09-03T22:35:38.743Z,7.47
2018-09-03T22:38:06.886Z,7.43
2018-09-03T22:40:35.107Z,6.53
2018-09-03T22:43:03.266Z,8.93
2018-09-03T22:45:31.467Z,8.27
2018-09-03T22:47:59.691Z,7.63
2018-09-03T22:50:27.930Z,9.67
2018-09-03T22:52:56.115Z,8.83
2018-09-03T22:55:24.353Z,7.07
2018-09-03T22:57:52.516Z,7.50
2018-09-03T23:00:20.703Z,8.63
2018-09-03T23:02:48.912Z,7.30
2018-09-03T23:05:17.115Z,7.37
2018-09-03T23:07:45.336Z,8.63
2018-09-03T23:10:13.640Z,8.63
2018-09-03T23:12:41.724Z,8.37
2018-09-03T23:15:10.121Z,7.30
2018-09-03T23:17:38.299Z,8.00
2018-09-03T23:20:06.502Z,9.97
2018-09-03T23:22:34.798Z,7.23
2018-09-03T23:25:03.043Z,6.60
2018-09-03T23:27:31.230Z,7.07
2018-09-03T23:29:59.470Z,7.80
2018-09-03T23:32:27.639Z,7.27
2018-09-03T23:34:56.134Z,8.83
2018-09-03T23:37:24.356Z,8.57
2018-09-03T23:39:52.635Z,8.00
2018-09-03T23:42:20.919Z,7.20
2018-09-03T23:44:49.145Z,6.93
2018-09-03T23:47:17.293Z,8.20
2018-09-03T23:49:45.514Z,7.77
2018-09-03T23:52:13.770Z,8.53
2018-09-03T23:54:48.648Z,7.67
2018-09-03T23:57:16.905Z,7.53
2018-09-03T23:59:45.816Z,8.27
